Terminal Aerodrome Forecast
Issued by NWS

Home | Current Version | Previous Version | Text Only | Print | Product List | Glossary On
Versions: 1 2 3 4 5 6 7 8 9 10 11 12 13 14 15 16 17 18 19 20
330
FTUS44 KCRP 290311 AAA
TAFALI
TAF AMD
KALI 290311Z 2903/2924 14011KT P6SM FEW015 BKN250
      TEMPO 2904/2907 BKN015
     FM290700 14011KT P6SM BKN015
      TEMPO 2911/2914 6SM BR SCT009 OVC012
     FM291500 14012G17KT P6SM BKN035
     FM291900 13016G24KT P6SM SCT040 BKN250=

USA.gov is the U.S. government's official web portal to all federal, state and local government web resources and services.